sensor_id;sensor_type;location;lat;lon;timestamp;P1;durP1;ratioP1;P2;durP2;ratioP2
14205;SDS011;7186;48.800;9.216;2023-05-10T00:01:12;1.33;;;1.23;;
14205;SDS011;7186;48.800;9.216;2023-05-10T00:03:37;3.03;;;1.47;;
14205;SDS011;7186;48.800;9.216;2023-05-10T00:06:02;2.10;;;1.53;;
14205;SDS011;7186;48.800;9.216;2023-05-10T00:08:28;2.27;;;1.23;;
14205;SDS011;7186;48.800;9.216;2023-05-10T00:10:53;1.20;;;1.20;;
14205;SDS011;7186;48.800;9.216;2023-05-10T00:13:18;1.50;;;1.40;;
14205;SDS011;7186;48.800;9.216;2023-05-10T00:15:43;1.30;;;1.20;;
14205;SDS011;7186;48.800;9.216;2023-05-10T00:18:08;1.40;;;1.30;;
14205;SDS011;7186;48.800;9.216;2023-05-10T00:20:34;1.93;;;1.20;;
14205;SDS011;7186;48.800;9.216;2023-05-10T00:22:59;1.00;;;1.00;;
14205;SDS011;7186;48.800;9.216;2023-05-10T00:25:24;2.00;;;1.10;;
14205;SDS011;7186;48.800;9.216;2023-05-10T00:27:49;0.93;;;0.90;;
14205;SDS011;7186;48.800;9.216;2023-05-10T00:30:15;1.23;;;1.10;;
14205;SDS011;7186;48.800;9.216;2023-05-10T00:32:40;1.47;;;0.80;;
14205;SDS011;7186;48.800;9.216;2023-05-10T00:35:06;1.17;;;0.70;;
14205;SDS011;7186;48.800;9.216;2023-05-10T00:37:31;1.60;;;0.97;;
14205;SDS011;7186;48.800;9.216;2023-05-10T00:39:56;0.30;;;0.30;;
14205;SDS011;7186;48.800;9.216;2023-05-10T00:42:21;1.30;;;0.80;;
14205;SDS011;7186;48.800;9.216;2023-05-10T00:44:47;0.70;;;0.70;;
14205;SDS011;7186;48.800;9.216;2023-05-10T00:47:12;2.57;;;0.60;;
14205;SDS011;7186;48.800;9.216;2023-05-10T00:49:37;3.80;;;1.23;;
14205;SDS011;7186;48.800;9.216;2023-05-10T00:52:03;1.40;;;0.50;;
14205;SDS011;7186;48.800;9.216;2023-05-10T00:54:28;0.40;;;0.40;;
14205;SDS011;7186;48.800;9.216;2023-05-10T00:56:53;0.50;;;0.50;;
14205;SDS011;7186;48.800;9.216;2023-05-10T00:59:19;0.67;;;0.67;;
14205;SDS011;7186;48.800;9.216;2023-05-10T01:01:45;0.60;;;0.60;;
14205;SDS011;7186;48.800;9.216;2023-05-10T01:04:12;1.03;;;0.70;;
14205;SDS011;7186;48.800;9.216;2023-05-10T01:06:38;1.90;;;0.50;;
14205;SDS011;7186;48.800;9.216;2023-05-10T01:15:08;0.73;;;0.73;;
14205;SDS011;7186;48.800;9.216;2023-05-10T01:17:35;0.60;;;0.60;;
14205;SDS011;7186;48.800;9.216;2023-05-10T01:20:02;0.50;;;0.50;;
14205;SDS011;7186;48.800;9.216;2023-05-10T01:22:36;0.50;;;0.50;;
14205;SDS011;7186;48.800;9.216;2023-05-10T01:27:47;0.77;;;0.77;;
14205;SDS011;7186;48.800;9.216;2023-05-10T01:37:58;0.70;;;0.70;;
14205;SDS011;7186;48.800;9.216;2023-05-10T01:40:32;1.83;;;0.90;;
14205;SDS011;7186;48.800;9.216;2023-05-10T01:43:01;0.70;;;0.70;;
14205;SDS011;7186;48.800;9.216;2023-05-10T01:45:28;1.07;;;1.00;;
14205;SDS011;7186;48.800;9.216;2023-05-10T01:48:03;0.77;;;0.77;;
14205;SDS011;7186;48.800;9.216;2023-05-10T01:50:30;0.70;;;0.70;;
14205;SDS011;7186;48.800;9.216;2023-05-10T01:52:56;0.90;;;0.90;;
14205;SDS011;7186;48.800;9.216;2023-05-10T01:55:23;0.90;;;0.90;;
14205;SDS011;7186;48.800;9.216;2023-05-10T01:57:51;1.27;;;0.90;;
14205;SDS011;7186;48.800;9.216;2023-05-10T02:00:17;0.90;;;0.80;;
14205;SDS011;7186;48.800;9.216;2023-05-10T02:02:44;1.07;;;0.80;;
14205;SDS011;7186;48.800;9.216;2023-05-10T02:05:10;0.80;;;0.80;;
14205;SDS011;7186;48.800;9.216;2023-05-10T02:07:37;0.67;;;0.67;;
14205;SDS011;7186;48.800;9.216;2023-05-10T02:10:02;0.97;;;0.80;;
14205;SDS011;7186;48.800;9.216;2023-05-10T02:12:29;0.97;;;0.80;;
14205;SDS011;7186;48.800;9.216;2023-05-10T02:14:54;1.20;;;0.90;;
14205;SDS011;7186;48.800;9.216;2023-05-10T02:17:20;0.80;;;0.80;;
14205;SDS011;7186;48.800;9.216;2023-05-10T02:19:46;0.90;;;0.77;;
14205;SDS011;7186;48.800;9.216;2023-05-10T02:22:12;0.80;;;0.80;;
14205;SDS011;7186;48.800;9.216;2023-05-10T02:24:37;1.37;;;0.90;;
14205;SDS011;7186;48.800;9.216;2023-05-10T02:27:03;0.77;;;0.77;;
14205;SDS011;7186;48.800;9.216;2023-05-10T02:29:29;1.00;;;0.97;;
14205;SDS011;7186;48.800;9.216;2023-05-10T02:31:56;0.83;;;0.83;;
14205;SDS011;7186;48.800;9.216;2023-05-10T02:34:22;0.90;;;0.90;;
14205;SDS011;7186;48.800;9.216;2023-05-10T02:36:48;0.70;;;0.70;;
14205;SDS011;7186;48.800;9.216;2023-05-10T02:39:14;0.90;;;0.90;;
14205;SDS011;7186;48.800;9.216;2023-05-10T02:41:40;1.10;;;0.97;;
14205;SDS011;7186;48.800;9.216;2023-05-10T02:44:07;0.80;;;0.80;;
14205;SDS011;7186;48.800;9.216;2023-05-10T02:46:33;0.80;;;0.80;;
14205;SDS011;7186;48.800;9.216;2023-05-10T02:48:58;1.57;;;0.80;;
14205;SDS011;7186;48.800;9.216;2023-05-10T02:51:27;1.10;;;0.93;;
14205;SDS011;7186;48.800;9.216;2023-05-10T02:53:53;0.70;;;0.70;;
14205;SDS011;7186;48.800;9.216;2023-05-10T02:56:25;0.80;;;0.80;;
14205;SDS011;7186;48.800;9.216;2023-05-10T02:58:53;1.10;;;1.00;;
14205;SDS011;7186;48.800;9.216;2023-05-10T03:01:19;0.80;;;0.80;;
14205;SDS011;7186;48.800;9.216;2023-05-10T03:03:44;0.63;;;0.63;;
14205;SDS011;7186;48.800;9.216;2023-05-10T03:06:09;0.97;;;0.80;;
14205;SDS011;7186;48.800;9.216;2023-05-10T03:08:34;1.10;;;1.10;;
14205;SDS011;7186;48.800;9.216;2023-05-10T03:11:10;0.97;;;0.97;;
14205;SDS011;7186;48.800;9.216;2023-05-10T03:16:10;1.00;;;1.00;;
14205;SDS011;7186;48.800;9.216;2023-05-10T03:18:41;3.60;;;1.00;;
14205;SDS011;7186;48.800;9.216;2023-05-10T03:21:07;0.70;;;0.70;;
14205;SDS011;7186;48.800;9.216;2023-05-10T03:23:34;1.90;;;1.03;;
14205;SDS011;7186;48.800;9.216;2023-05-10T03:26:00;1.00;;;1.00;;
14205;SDS011;7186;48.800;9.216;2023-05-10T03:28:34;0.97;;;0.97;;
14205;SDS011;7186;48.800;9.216;2023-05-10T03:31:09;1.13;;;1.03;;
14205;SDS011;7186;48.800;9.216;2023-05-10T03:33:34;1.60;;;0.97;;
14205;SDS011;7186;48.800;9.216;2023-05-10T03:35:59;1.43;;;1.00;;
14205;SDS011;7186;48.800;9.216;2023-05-10T03:38:25;1.17;;;1.07;;
14205;SDS011;7186;48.800;9.216;2023-05-10T03:40:50;0.90;;;0.90;;
14205;SDS011;7186;48.800;9.216;2023-05-10T03:43:15;1.00;;;1.00;;
14205;SDS011;7186;48.800;9.216;2023-05-10T03:45:40;1.73;;;1.07;;
14205;SDS011;7186;48.800;9.216;2023-05-10T03:48:05;1.27;;;1.17;;
14205;SDS011;7186;48.800;9.216;2023-05-10T03:50:31;1.50;;;1.40;;
14205;SDS011;7186;48.800;9.216;2023-05-10T03:52:56;1.40;;;1.30;;
14205;SDS011;7186;48.800;9.216;2023-05-10T03:55:22;1.33;;;1.30;;
14205;SDS011;7186;48.800;9.216;2023-05-10T03:57:47;2.83;;;1.50;;
14205;SDS011;7186;48.800;9.216;2023-05-10T04:00:14;1.20;;;1.20;;
14205;SDS011;7186;48.800;9.216;2023-05-10T04:02:39;1.10;;;1.10;;
14205;SDS011;7186;48.800;9.216;2023-05-10T04:05:05;1.33;;;1.20;;
14205;SDS011;7186;48.800;9.216;2023-05-10T04:07:30;1.40;;;1.30;;
14205;SDS011;7186;48.800;9.216;2023-05-10T04:09:55;1.40;;;1.30;;
14205;SDS011;7186;48.800;9.216;2023-05-10T04:12:20;1.47;;;1.30;;
14205;SDS011;7186;48.800;9.216;2023-05-10T04:14:46;2.40;;;1.20;;
14205;SDS011;7186;48.800;9.216;2023-05-10T04:17:11;2.00;;;1.10;;
14205;SDS011;7186;48.800;9.216;2023-05-10T04:19:36;1.10;;;1.10;;
14205;SDS011;7186;48.800;9.216;2023-05-10T04:22:02;1.30;;;1.30;;
14205;SDS011;7186;48.800;9.216;2023-05-10T04:24:27;1.40;;;1.30;;
14205;SDS011;7186;48.800;9.216;2023-05-10T04:26:53;3.37;;;1.10;;
14205;SDS011;7186;48.800;9.216;2023-05-10T04:29:18;1.97;;;1.27;;
14205;SDS011;7186;48.800;9.216;2023-05-10T04:31:44;1.77;;;1.50;;
14205;SDS011;7186;48.800;9.216;2023-05-10T04:34:09;2.20;;;1.43;;
14205;SDS011;7186;48.800;9.216;2023-05-10T04:36:34;1.83;;;1.57;;
14205;SDS011;7186;48.800;9.216;2023-05-10T04:39:00;1.90;;;1.50;;
14205;SDS011;7186;48.800;9.216;2023-05-10T04:41:27;1.23;;;1.23;;
14205;SDS011;7186;48.800;9.216;2023-05-10T04:43:52;1.57;;;1.47;;
14205;SDS011;7186;48.800;9.216;2023-05-10T04:46:18;2.10;;;1.70;;
14205;SDS011;7186;48.800;9.216;2023-05-10T04:48:43;1.50;;;1.40;;
14205;SDS011;7186;48.800;9.216;2023-05-10T04:51:08;1.53;;;1.30;;
14205;SDS011;7186;48.800;9.216;2023-05-10T04:53:33;1.73;;;1.37;;
14205;SDS011;7186;48.800;9.216;2023-05-10T04:55:58;1.23;;;1.20;;
14205;SDS011;7186;48.800;9.216;2023-05-10T04:58:24;1.60;;;1.50;;
14205;SDS011;7186;48.800;9.216;2023-05-10T05:00:49;2.20;;;1.40;;
14205;SDS011;7186;48.800;9.216;2023-05-10T05:03:14;1.67;;;1.50;;
14205;SDS011;7186;48.800;9.216;2023-05-10T05:05:39;2.80;;;1.40;;
14205;SDS011;7186;48.800;9.216;2023-05-10T05:08:05;1.50;;;1.40;;
14205;SDS011;7186;48.800;9.216;2023-05-10T05:10:30;2.10;;;1.30;;
14205;SDS011;7186;48.800;9.216;2023-05-10T05:12:55;2.60;;;1.50;;
14205;SDS011;7186;48.800;9.216;2023-05-10T05:15:20;1.40;;;1.30;;
14205;SDS011;7186;48.800;9.216;2023-05-10T05:17:45;1.43;;;1.33;;
14205;SDS011;7186;48.800;9.216;2023-05-10T05:20:11;3.70;;;1.60;;
14205;SDS011;7186;48.800;9.216;2023-05-10T05:22:36;2.57;;;1.50;;
14205;SDS011;7186;48.800;9.216;2023-05-10T05:25:02;2.30;;;1.37;;
14205;SDS011;7186;48.800;9.216;2023-05-10T05:27:28;1.50;;;1.40;;
14205;SDS011;7186;48.800;9.216;2023-05-10T05:29:53;2.73;;;1.87;;
14205;SDS011;7186;48.800;9.216;2023-05-10T05:32:19;1.60;;;1.20;;
14205;SDS011;7186;48.800;9.216;2023-05-10T05:34:45;2.57;;;1.73;;
14205;SDS011;7186;48.800;9.216;2023-05-10T05:37:14;1.50;;;1.40;;
14205;SDS011;7186;48.800;9.216;2023-05-10T05:39:39;3.23;;;1.50;;
14205;SDS011;7186;48.800;9.216;2023-05-10T05:42:04;1.60;;;1.50;;
14205;SDS011;7186;48.800;9.216;2023-05-10T05:44:30;6.70;;;1.73;;
14205;SDS011;7186;48.800;9.216;2023-05-10T05:46:55;1.53;;;1.33;;
14205;SDS011;7186;48.800;9.216;2023-05-10T05:49:20;2.63;;;1.53;;
14205;SDS011;7186;48.800;9.216;2023-05-10T05:51:46;4.80;;;1.60;;
14205;SDS011;7186;48.800;9.216;2023-05-10T05:54:12;2.83;;;1.43;;
14205;SDS011;7186;48.800;9.216;2023-05-10T05:56:37;3.37;;;1.47;;
14205;SDS011;7186;48.800;9.216;2023-05-10T05:59:02;4.57;;;1.50;;
14205;SDS011;7186;48.800;9.216;2023-05-10T06:01:28;1.43;;;1.33;;
14205;SDS011;7186;48.800;9.216;2023-05-10T06:03:53;2.57;;;1.63;;
14205;SDS011;7186;48.800;9.216;2023-05-10T06:06:19;1.50;;;1.40;;
14205;SDS011;7186;48.800;9.216;2023-05-10T06:08:44;8.33;;;1.73;;
14205;SDS011;7186;48.800;9.216;2023-05-10T06:11:09;4.67;;;1.60;;
14205;SDS011;7186;48.800;9.216;2023-05-10T06:13:34;3.57;;;1.63;;
14205;SDS011;7186;48.800;9.216;2023-05-10T06:16:00;6.70;;;1.97;;
14205;SDS011;7186;48.800;9.216;2023-05-10T06:18:26;3.50;;;2.17;;
14205;SDS011;7186;48.800;9.216;2023-05-10T06:20:51;1.73;;;1.60;;
14205;SDS011;7186;48.800;9.216;2023-05-10T06:23:16;4.23;;;1.70;;
14205;SDS011;7186;48.800;9.216;2023-05-10T06:25:41;2.10;;;1.53;;
14205;SDS011;7186;48.800;9.216;2023-05-10T06:28:07;4.10;;;1.70;;
14205;SDS011;7186;48.800;9.216;2023-05-10T06:30:32;6.07;;;1.40;;
14205;SDS011;7186;48.800;9.216;2023-05-10T06:32:57;1.60;;;1.50;;
14205;SDS011;7186;48.800;9.216;2023-05-10T06:35:22;5.03;;;1.70;;
14205;SDS011;7186;48.800;9.216;2023-05-10T06:37:48;1.60;;;1.50;;
14205;SDS011;7186;48.800;9.216;2023-05-10T06:40:13;2.27;;;1.70;;
14205;SDS011;7186;48.800;9.216;2023-05-10T06:42:39;7.20;;;1.70;;
14205;SDS011;7186;48.800;9.216;2023-05-10T06:45:04;2.53;;;1.77;;
14205;SDS011;7186;48.800;9.216;2023-05-10T06:47:30;3.10;;;1.47;;
14205;SDS011;7186;48.800;9.216;2023-05-10T06:49:55;1.87;;;1.50;;
14205;SDS011;7186;48.800;9.216;2023-05-10T06:52:21;3.50;;;1.77;;
14205;SDS011;7186;48.800;9.216;2023-05-10T06:54:46;2.27;;;2.00;;
14205;SDS011;7186;48.800;9.216;2023-05-10T06:57:11;3.63;;;1.70;;
14205;SDS011;7186;48.800;9.216;2023-05-10T06:59:36;3.53;;;1.70;;
14205;SDS011;7186;48.800;9.216;2023-05-10T07:02:01;1.70;;;1.60;;
14205;SDS011;7186;48.800;9.216;2023-05-10T07:04:27;3.63;;;2.00;;
14205;SDS011;7186;48.800;9.216;2023-05-10T07:06:52;2.13;;;1.70;;
14205;SDS011;7186;48.800;9.216;2023-05-10T07:09:18;2.13;;;1.80;;
14205;SDS011;7186;48.800;9.216;2023-05-10T07:11:43;3.43;;;1.80;;
14205;SDS011;7186;48.800;9.216;2023-05-10T07:14:08;1.67;;;1.57;;
14205;SDS011;7186;48.800;9.216;2023-05-10T07:16:33;2.20;;;1.77;;
14205;SDS011;7186;48.800;9.216;2023-05-10T07:18:59;2.77;;;1.60;;
14205;SDS011;7186;48.800;9.216;2023-05-10T07:21:24;1.63;;;1.53;;
14205;SDS011;7186;48.800;9.216;2023-05-10T07:23:49;4.13;;;1.83;;
14205;SDS011;7186;48.800;9.216;2023-05-10T07:26:15;2.27;;;1.70;;
14205;SDS011;7186;48.800;9.216;2023-05-10T07:28:40;2.80;;;1.67;;
14205;SDS011;7186;48.800;9.216;2023-05-10T07:31:05;3.17;;;1.70;;
14205;SDS011;7186;48.800;9.216;2023-05-10T07:33:30;1.60;;;1.50;;
14205;SDS011;7186;48.800;9.216;2023-05-10T07:35:56;2.20;;;1.40;;
14205;SDS011;7186;48.800;9.216;2023-05-10T07:38:21;4.77;;;1.80;;
14205;SDS011;7186;48.800;9.216;2023-05-10T07:40:46;3.40;;;1.90;;
14205;SDS011;7186;48.800;9.216;2023-05-10T07:43:11;3.10;;;1.80;;
14205;SDS011;7186;48.800;9.216;2023-05-10T07:45:37;3.27;;;1.57;;
14205;SDS011;7186;48.800;9.216;2023-05-10T07:48:02;2.10;;;1.53;;
14205;SDS011;7186;48.800;9.216;2023-05-10T07:50:27;1.47;;;1.37;;
14205;SDS011;7186;48.800;9.216;2023-05-10T07:52:52;3.77;;;1.50;;
14205;SDS011;7186;48.800;9.216;2023-05-10T07:55:18;1.87;;;1.70;;
14205;SDS011;7186;48.800;9.216;2023-05-10T07:57:43;2.27;;;1.60;;
14205;SDS011;7186;48.800;9.216;2023-05-10T08:00:09;1.60;;;1.50;;
14205;SDS011;7186;48.800;9.216;2023-05-10T08:02:37;2.93;;;2.17;;
14205;SDS011;7186;48.800;9.216;2023-05-10T08:05:02;3.30;;;1.27;;
14205;SDS011;7186;48.800;9.216;2023-05-10T08:07:27;1.17;;;1.10;;
14205;SDS011;7186;48.800;9.216;2023-05-10T08:09:53;2.57;;;1.57;;
14205;SDS011;7186;48.800;9.216;2023-05-10T08:12:18;2.50;;;1.20;;
14205;SDS011;7186;48.800;9.216;2023-05-10T08:14:43;3.10;;;1.20;;
14205;SDS011;7186;48.800;9.216;2023-05-10T08:17:08;1.30;;;1.20;;
14205;SDS011;7186;48.800;9.216;2023-05-10T08:19:33;2.70;;;1.50;;
14205;SDS011;7186;48.800;9.216;2023-05-10T08:21:59;2.73;;;1.50;;
14205;SDS011;7186;48.800;9.216;2023-05-10T08:24:24;2.07;;;1.47;;
14205;SDS011;7186;48.800;9.216;2023-05-10T08:26:50;1.40;;;1.20;;
14205;SDS011;7186;48.800;9.216;2023-05-10T08:29:15;2.27;;;1.37;;
14205;SDS011;7186;48.800;9.216;2023-05-10T08:31:40;5.13;;;1.33;;
14205;SDS011;7186;48.800;9.216;2023-05-10T08:34:05;1.60;;;1.20;;
14205;SDS011;7186;48.800;9.216;2023-05-10T08:36:31;1.33;;;1.20;;
14205;SDS011;7186;48.800;9.216;2023-05-10T08:38:57;2.80;;;1.40;;
14205;SDS011;7186;48.800;9.216;2023-05-10T08:41:23;3.67;;;1.30;;
14205;SDS011;7186;48.800;9.216;2023-05-10T08:43:52;1.47;;;1.10;;
14205;SDS011;7186;48.800;9.216;2023-05-10T08:46:18;5.07;;;2.10;;
14205;SDS011;7186;48.800;9.216;2023-05-10T08:48:47;3.57;;;1.07;;
14205;SDS011;7186;48.800;9.216;2023-05-10T08:51:13;2.67;;;1.17;;
14205;SDS011;7186;48.800;9.216;2023-05-10T08:53:39;3.40;;;1.60;;
14205;SDS011;7186;48.800;9.216;2023-05-10T08:56:04;2.30;;;1.20;;
14205;SDS011;7186;48.800;9.216;2023-05-10T08:58:29;1.77;;;1.07;;
14205;SDS011;7186;48.800;9.216;2023-05-10T09:00:55;1.57;;;1.33;;
14205;SDS011;7186;48.800;9.216;2023-05-10T09:03:21;1.43;;;1.00;;
14205;SDS011;7186;48.800;9.216;2023-05-10T09:05:46;3.50;;;0.90;;
14205;SDS011;7186;48.800;9.216;2023-05-10T09:08:12;1.60;;;1.20;;
14205;SDS011;7186;48.800;9.216;2023-05-10T09:10:38;1.20;;;1.20;;
14205;SDS011;7186;48.800;9.216;2023-05-10T09:13:04;0.90;;;0.90;;
14205;SDS011;7186;48.800;9.216;2023-05-10T09:15:30;1.13;;;1.13;;
14205;SDS011;7186;48.800;9.216;2023-05-10T09:17:55;2.93;;;1.20;;
14205;SDS011;7186;48.800;9.216;2023-05-10T09:20:21;1.73;;;1.10;;
14205;SDS011;7186;48.800;9.216;2023-05-10T09:22:46;1.60;;;1.20;;
14205;SDS011;7186;48.800;9.216;2023-05-10T09:25:15;1.73;;;0.90;;
14205;SDS011;7186;48.800;9.216;2023-05-10T09:27:41;2.73;;;1.23;;
14205;SDS011;7186;48.800;9.216;2023-05-10T09:30:09;3.50;;;1.20;;
14205;SDS011;7186;48.800;9.216;2023-05-10T09:32:37;3.63;;;1.17;;
14205;SDS011;7186;48.800;9.216;2023-05-10T09:35:09;1.30;;;1.20;;
14205;SDS011;7186;48.800;9.216;2023-05-10T09:37:35;1.13;;;1.10;;
14205;SDS011;7186;48.800;9.216;2023-05-10T09:40:00;1.60;;;0.80;;
14205;SDS011;7186;48.800;9.216;2023-05-10T09:42:25;4.67;;;1.63;;
14205;SDS011;7186;48.800;9.216;2023-05-10T09:44:50;4.37;;;1.60;;
14205;SDS011;7186;48.800;9.216;2023-05-10T09:47:19;4.73;;;1.17;;
14205;SDS011;7186;48.800;9.216;2023-05-10T09:49:45;2.10;;;1.00;;
14205;SDS011;7186;48.800;9.216;2023-05-10T09:52:14;0.87;;;0.87;;
14205;SDS011;7186;48.800;9.216;2023-05-10T09:54:42;1.03;;;0.97;;
14205;SDS011;7186;48.800;9.216;2023-05-10T09:57:18;1.23;;;1.00;;
14205;SDS011;7186;48.800;9.216;2023-05-10T09:59:43;1.53;;;1.30;;
14205;SDS011;7186;48.800;9.216;2023-05-10T10:02:08;5.33;;;1.33;;
14205;SDS011;7186;48.800;9.216;2023-05-10T10:04:38;0.97;;;0.93;;
14205;SDS011;7186;48.800;9.216;2023-05-10T10:07:04;0.80;;;0.80;;
14205;SDS011;7186;48.800;9.216;2023-05-10T10:09:29;2.53;;;1.20;;
14205;SDS011;7186;48.800;9.216;2023-05-10T10:11:55;1.40;;;1.00;;
14205;SDS011;7186;48.800;9.216;2023-05-10T10:14:21;0.90;;;0.90;;
14205;SDS011;7186;48.800;9.216;2023-05-10T10:16:47;1.10;;;1.10;;
14205;SDS011;7186;48.800;9.216;2023-05-10T10:19:13;2.87;;;1.43;;
14205;SDS011;7186;48.800;9.216;2023-05-10T10:21:39;1.93;;;1.40;;
14205;SDS011;7186;48.800;9.216;2023-05-10T10:24:05;4.13;;;1.27;;
14205;SDS011;7186;48.800;9.216;2023-05-10T10:26:32;3.00;;;1.33;;
14205;SDS011;7186;48.800;9.216;2023-05-10T10:31:50;1.87;;;1.23;;
14205;SDS011;7186;48.800;9.216;2023-05-10T10:34:23;1.37;;;1.00;;
14205;SDS011;7186;48.800;9.216;2023-05-10T10:36:50;1.30;;;1.20;;
14205;SDS011;7186;48.800;9.216;2023-05-10T10:39:16;1.13;;;1.13;;
14205;SDS011;7186;48.800;9.216;2023-05-10T10:41:56;1.33;;;1.10;;
14205;SDS011;7186;48.800;9.216;2023-05-10T10:50:03;2.33;;;1.30;;
14205;SDS011;7186;48.800;9.216;2023-05-10T10:57:24;2.30;;;1.20;;
14205;SDS011;7186;48.800;9.216;2023-05-10T10:59:51;8.63;;;1.80;;
14205;SDS011;7186;48.800;9.216;2023-05-10T11:05:22;1.27;;;1.10;;
14205;SDS011;7186;48.800;9.216;2023-05-10T11:07:56;0.83;;;0.83;;
14205;SDS011;7186;48.800;9.216;2023-05-10T11:10:22;0.70;;;0.70;;
14205;SDS011;7186;48.800;9.216;2023-05-10T11:13:04;1.10;;;0.93;;
14205;SDS011;7186;48.800;9.216;2023-05-10T11:17:58;4.57;;;1.13;;
14205;SDS011;7186;48.800;9.216;2023-05-10T11:20:26;2.63;;;1.10;;
14205;SDS011;7186;48.800;9.216;2023-05-10T11:22:58;4.53;;;1.30;;
14205;SDS011;7186;48.800;9.216;2023-05-10T11:25:26;4.60;;;1.30;;
14205;SDS011;7186;48.800;9.216;2023-05-10T11:27:52;2.00;;;1.10;;
14205;SDS011;7186;48.800;9.216;2023-05-10T11:30:17;0.87;;;0.87;;
14205;SDS011;7186;48.800;9.216;2023-05-10T11:32:42;1.50;;;1.00;;
14205;SDS011;7186;48.800;9.216;2023-05-10T11:35:08;1.33;;;0.90;;
14205;SDS011;7186;48.800;9.216;2023-05-10T11:37:34;1.43;;;1.00;;
14205;SDS011;7186;48.800;9.216;2023-05-10T11:39:59;3.70;;;1.30;;
14205;SDS011;7186;48.800;9.216;2023-05-10T11:42:25;1.80;;;1.30;;
14205;SDS011;7186;48.800;9.216;2023-05-10T11:44:50;2.43;;;0.90;;
14205;SDS011;7186;48.800;9.216;2023-05-10T11:47:15;1.03;;;0.93;;
14205;SDS011;7186;48.800;9.216;2023-05-10T11:49:43;1.20;;;1.10;;
14205;SDS011;7186;48.800;9.216;2023-05-10T11:52:08;2.10;;;0.90;;
14205;SDS011;7186;48.800;9.216;2023-05-10T11:54:35;1.07;;;1.07;;
14205;SDS011;7186;48.800;9.216;2023-05-10T11:57:01;3.17;;;1.30;;
14205;SDS011;7186;48.800;9.216;2023-05-10T11:59:27;3.63;;;1.20;;
14205;SDS011;7186;48.800;9.216;2023-05-10T12:01:52;2.17;;;1.37;;
14205;SDS011;7186;48.800;9.216;2023-05-10T12:04:17;1.00;;;1.00;;
14205;SDS011;7186;48.800;9.216;2023-05-10T12:06:43;0.93;;;0.93;;
14205;SDS011;7186;48.800;9.216;2023-05-10T12:09:09;2.93;;;1.30;;
14205;SDS011;7186;48.800;9.216;2023-05-10T12:11:36;3.40;;;1.20;;
14205;SDS011;7186;48.800;9.216;2023-05-10T12:14:03;3.47;;;1.20;;
14205;SDS011;7186;48.800;9.216;2023-05-10T12:16:29;3.37;;;1.33;;
14205;SDS011;7186;48.800;9.216;2023-05-10T12:18:58;3.73;;;1.20;;
14205;SDS011;7186;48.800;9.216;2023-05-10T12:21:24;2.27;;;1.50;;
14205;SDS011;7186;48.800;9.216;2023-05-10T12:23:50;6.33;;;1.40;;
14205;SDS011;7186;48.800;9.216;2023-05-10T12:26:15;1.57;;;1.20;;
14205;SDS011;7186;48.800;9.216;2023-05-10T12:28:40;3.83;;;1.50;;
14205;SDS011;7186;48.800;9.216;2023-05-10T12:31:06;2.30;;;1.50;;
14205;SDS011;7186;48.800;9.216;2023-05-10T12:33:38;2.27;;;1.83;;
14205;SDS011;7186;48.800;9.216;2023-05-10T12:36:04;4.03;;;1.70;;
14205;SDS011;7186;48.800;9.216;2023-05-10T12:38:32;2.33;;;1.60;;
14205;SDS011;7186;48.800;9.216;2023-05-10T12:40:58;2.20;;;1.40;;
14205;SDS011;7186;48.800;9.216;2023-05-10T12:43:25;2.83;;;1.30;;
14205;SDS011;7186;48.800;9.216;2023-05-10T12:45:50;1.47;;;1.40;;
14205;SDS011;7186;48.800;9.216;2023-05-10T12:48:15;2.47;;;1.73;;
14205;SDS011;7186;48.800;9.216;2023-05-10T12:50:42;3.47;;;1.60;;
14205;SDS011;7186;48.800;9.216;2023-05-10T12:53:07;3.23;;;1.43;;
14205;SDS011;7186;48.800;9.216;2023-05-10T12:55:33;7.73;;;1.60;;
14205;SDS011;7186;48.800;9.216;2023-05-10T12:57:58;2.63;;;1.40;;
14205;SDS011;7186;48.800;9.216;2023-05-10T13:00:24;3.03;;;1.50;;
14205;SDS011;7186;48.800;9.216;2023-05-10T13:02:49;2.03;;;1.20;;
14205;SDS011;7186;48.800;9.216;2023-05-10T13:05:14;5.07;;;1.50;;
14205;SDS011;7186;48.800;9.216;2023-05-10T13:07:39;5.67;;;1.60;;
14205;SDS011;7186;48.800;9.216;2023-05-10T13:10:05;7.93;;;1.97;;
14205;SDS011;7186;48.800;9.216;2023-05-10T13:12:31;2.67;;;1.40;;
14205;SDS011;7186;48.800;9.216;2023-05-10T13:14:56;5.20;;;1.67;;
14205;SDS011;7186;48.800;9.216;2023-05-10T13:17:21;8.27;;;1.93;;
14205;SDS011;7186;48.800;9.216;2023-05-10T13:19:47;13.77;;;3.40;;
14205;SDS011;7186;48.800;9.216;2023-05-10T13:22:12;15.43;;;2.77;;
14205;SDS011;7186;48.800;9.216;2023-05-10T13:24:37;11.87;;;2.20;;
14205;SDS011;7186;48.800;9.216;2023-05-10T13:27:02;12.70;;;2.33;;
14205;SDS011;7186;48.800;9.216;2023-05-10T13:29:27;4.17;;;1.70;;
14205;SDS011;7186;48.800;9.216;2023-05-10T13:31:53;2.17;;;1.40;;
14205;SDS011;7186;48.800;9.216;2023-05-10T13:34:18;2.93;;;1.60;;
14205;SDS011;7186;48.800;9.216;2023-05-10T13:36:45;3.30;;;1.40;;
14205;SDS011;7186;48.800;9.216;2023-05-10T13:39:10;8.57;;;1.70;;
14205;SDS011;7186;48.800;9.216;2023-05-10T13:41:36;2.50;;;1.53;;
14205;SDS011;7186;48.800;9.216;2023-05-10T13:44:02;4.53;;;1.77;;
14205;SDS011;7186;48.800;9.216;2023-05-10T13:46:27;3.00;;;1.50;;
14205;SDS011;7186;48.800;9.216;2023-05-10T13:48:52;2.23;;;1.30;;
14205;SDS011;7186;48.800;9.216;2023-05-10T13:51:17;4.97;;;1.67;;
14205;SDS011;7186;48.800;9.216;2023-05-10T13:53:43;6.43;;;1.80;;
14205;SDS011;7186;48.800;9.216;2023-05-10T13:56:08;2.53;;;1.20;;
14205;SDS011;7186;48.800;9.216;2023-05-10T13:58:33;3.90;;;1.37;;
14205;SDS011;7186;48.800;9.216;2023-05-10T14:00:59;5.17;;;1.57;;
14205;SDS011;7186;48.800;9.216;2023-05-10T14:03:25;2.50;;;1.40;;
14205;SDS011;7186;48.800;9.216;2023-05-10T14:05:50;3.33;;;1.50;;
14205;SDS011;7186;48.800;9.216;2023-05-10T14:08:15;19.10;;;2.63;;
14205;SDS011;7186;48.800;9.216;2023-05-10T14:10:40;7.43;;;1.73;;
14205;SDS011;7186;48.800;9.216;2023-05-10T14:13:05;3.37;;;1.53;;
14205;SDS011;7186;48.800;9.216;2023-05-10T14:15:31;1.27;;;1.17;;
14205;SDS011;7186;48.800;9.216;2023-05-10T14:17:56;1.30;;;1.00;;
14205;SDS011;7186;48.800;9.216;2023-05-10T14:20:21;1.53;;;1.30;;
14205;SDS011;7186;48.800;9.216;2023-05-10T14:22:47;3.80;;;1.50;;
14205;SDS011;7186;48.800;9.216;2023-05-10T14:25:12;3.80;;;1.20;;
14205;SDS011;7186;48.800;9.216;2023-05-10T14:27:38;3.27;;;1.40;;
14205;SDS011;7186;48.800;9.216;2023-05-10T14:30:03;2.33;;;1.50;;
14205;SDS011;7186;48.800;9.216;2023-05-10T14:32:28;1.20;;;1.20;;
14205;SDS011;7186;48.800;9.216;2023-05-10T14:34:53;2.60;;;1.53;;
14205;SDS011;7186;48.800;9.216;2023-05-10T14:37:19;1.13;;;1.13;;
14205;SDS011;7186;48.800;9.216;2023-05-10T14:39:44;5.23;;;1.20;;
14205;SDS011;7186;48.800;9.216;2023-05-10T14:42:10;1.30;;;1.30;;
14205;SDS011;7186;48.800;9.216;2023-05-10T14:44:35;1.37;;;1.07;;
14205;SDS011;7186;48.800;9.216;2023-05-10T14:47:01;1.80;;;1.20;;
14205;SDS011;7186;48.800;9.216;2023-05-10T14:49:26;2.30;;;1.23;;
14205;SDS011;7186;48.800;9.216;2023-05-10T14:51:51;3.43;;;1.40;;
14205;SDS011;7186;48.800;9.216;2023-05-10T14:54:18;1.80;;;1.47;;
14205;SDS011;7186;48.800;9.216;2023-05-10T14:56:43;2.30;;;1.63;;
14205;SDS011;7186;48.800;9.216;2023-05-10T14:59:10;2.40;;;1.20;;
14205;SDS011;7186;48.800;9.216;2023-05-10T15:01:35;1.20;;;1.20;;
14205;SDS011;7186;48.800;9.216;2023-05-10T15:04:03;1.23;;;1.13;;
14205;SDS011;7186;48.800;9.216;2023-05-10T15:06:31;3.33;;;1.40;;
14205;SDS011;7186;48.800;9.216;2023-05-10T15:08:57;2.60;;;1.20;;
14205;SDS011;7186;48.800;9.216;2023-05-10T15:11:22;3.97;;;1.30;;
14205;SDS011;7186;48.800;9.216;2023-05-10T15:13:47;1.50;;;1.13;;
14205;SDS011;7186;48.800;9.216;2023-05-10T15:16:12;1.43;;;1.13;;
14205;SDS011;7186;48.800;9.216;2023-05-10T15:18:37;1.00;;;1.00;;
14205;SDS011;7186;48.800;9.216;2023-05-10T15:21:03;2.07;;;1.10;;
14205;SDS011;7186;48.800;9.216;2023-05-10T15:23:28;2.40;;;1.30;;
14205;SDS011;7186;48.800;9.216;2023-05-10T15:25:54;1.47;;;1.10;;
14205;SDS011;7186;48.800;9.216;2023-05-10T15:28:20;3.23;;;1.50;;
14205;SDS011;7186;48.800;9.216;2023-05-10T15:30:45;1.40;;;1.10;;